sensor_id;sensor_type;location;lat;lon;timestamp;pressure;altitude;pressure_sealevel;temperature;humidity
63190;BME280;49286;44.460;26.114;2022-11-20T00:02:20;100292.81;;;5.46;100.00
63190;BME280;49286;44.460;26.114;2022-11-20T00:04:46;100297.03;;;5.40;100.00
63190;BME280;49286;44.460;26.114;2022-11-20T00:07:11;100256.69;;;5.16;100.00
63190;BME280;49286;44.460;26.114;2022-11-20T00:09:37;100028.81;;;3.81;100.00
63190;BME280;49286;44.460;26.114;2022-11-20T00:12:02;100244.47;;;5.12;100.00
63190;BME280;49286;44.460;26.114;2022-11-20T00:14:28;100273.28;;;5.23;100.00
63190;BME280;49286;44.460;26.114;2022-11-20T00:16:53;100244.47;;;5.12;100.00
63190;BME280;49286;44.460;26.114;2022-11-20T00:19:19;100260.28;;;5.23;100.00
63190;BME280;49286;44.460;26.114;2022-11-20T00:21:44;100105.25;;;4.37;100.00
63190;BME280;49286;44.460;26.114;2022-11-20T00:24:10;100119.19;;;4.42;100.00
63190;BME280;49286;44.460;26.114;2022-11-20T00:26:35;100171.97;;;4.83;100.00
63190;BME280;49286;44.460;26.114;2022-11-20T00:29:02;100230.72;;;5.18;100.00
63190;BME280;49286;44.460;26.114;2022-11-20T00:31:29;100128.94;;;4.52;100.00
63190;BME280;49286;44.460;26.114;2022-11-20T00:33:54;100032.44;;;3.90;100.00
63190;BME280;49286;44.460;26.114;2022-11-20T00:36:23;100104.94;;;4.21;100.00
63190;BME280;49286;44.460;26.114;2022-11-20T00:38:53;100277.50;;;5.16;100.00
63190;BME280;49286;44.460;26.114;2022-11-20T00:41:18;100129.56;;;4.40;100.00
63190;BME280;49286;44.460;26.114;2022-11-20T00:43:44;100121.72;;;4.39;100.00
63190;BME280;49286;44.460;26.114;2022-11-20T00:46:13;100250.75;;;5.23;100.00
63190;BME280;49286;44.460;26.114;2022-11-20T00:48:41;100182.50;;;4.90;100.00
63190;BME280;49286;44.460;26.114;2022-11-20T00:51:06;100238.56;;;5.21;100.00
63190;BME280;49286;44.460;26.114;2022-11-20T00:53:32;100128.13;;;4.55;100.00
63190;BME280;49286;44.460;26.114;2022-11-20T00:56:16;100240.16;;;5.14;100.00
63190;BME280;49286;44.460;26.114;2022-11-20T00:58:45;100224.56;;;5.14;100.00
63190;BME280;49286;44.460;26.114;2022-11-20T01:01:13;100216.69;;;5.10;100.00
63190;BME280;49286;44.460;26.114;2022-11-20T01:03:42;100220.00;;;5.02;100.00
63190;BME280;49286;44.460;26.114;2022-11-20T01:06:14;100165.09;;;4.85;100.00
63190;BME280;49286;44.460;26.114;2022-11-20T01:08:40;100228.94;;;5.15;100.00
63190;BME280;49286;44.460;26.114;2022-11-20T01:11:11;100227.13;;;5.13;100.00
63190;BME280;49286;44.460;26.114;2022-11-20T01:13:37;100221.31;;;5.26;100.00
63190;BME280;49286;44.460;26.114;2022-11-20T01:16:17;100186.97;;;4.97;100.00
63190;BME280;49286;44.460;26.114;2022-11-20T01:18:46;100131.63;;;4.58;100.00
63190;BME280;49286;44.460;26.114;2022-11-20T01:21:14;100202.75;;;5.07;100.00
63190;BME280;49286;44.460;26.114;2022-11-20T01:23:42;100193.03;;;4.97;100.00
63190;BME280;49286;44.460;26.114;2022-11-20T01:26:10;100222.41;;;4.92;100.00
63190;BME280;49286;44.460;26.114;2022-11-20T01:28:37;100179.78;;;4.83;100.00
63190;BME280;49286;44.460;26.114;2022-11-20T01:31:14;100043.94;;;4.01;100.00
63190;BME280;49286;44.460;26.114;2022-11-20T01:33:41;100071.97;;;4.17;100.00
63190;BME280;49286;44.460;26.114;2022-11-20T01:36:07;100225.13;;;4.98;100.00
63190;BME280;49286;44.460;26.114;2022-11-20T01:38:33;100083.28;;;4.21;100.00
63190;BME280;49286;44.460;26.114;2022-11-20T01:40:58;100080.59;;;4.16;100.00
63190;BME280;49286;44.460;26.114;2022-11-20T01:43:24;100049.03;;;3.96;100.00
63190;BME280;49286;44.460;26.114;2022-11-20T01:48:55;100205.09;;;4.92;100.00
63190;BME280;49286;44.460;26.114;2022-11-20T01:54:01;100193.72;;;4.87;100.00
63190;BME280;49286;44.460;26.114;2022-11-20T01:56:31;100079.94;;;4.27;100.00
63190;BME280;49286;44.460;26.114;2022-11-20T01:59:02;100113.25;;;4.48;100.00
63190;BME280;49286;44.460;26.114;2022-11-20T02:01:29;100167.38;;;4.70;100.00
63190;BME280;49286;44.460;26.114;2022-11-20T02:03:55;100040.47;;;4.00;100.00
63190;BME280;49286;44.460;26.114;2022-11-20T02:09:35;100177.34;;;4.93;100.00
63190;BME280;49286;44.460;26.114;2022-11-20T02:12:00;100052.06;;;4.18;100.00
63190;BME280;49286;44.460;26.114;2022-11-20T02:14:26;100172.88;;;4.85;100.00
63190;BME280;49286;44.460;26.114;2022-11-20T02:16:51;100019.44;;;3.88;100.00
63190;BME280;49286;44.460;26.114;2022-11-20T02:19:30;100170.97;;;4.75;100.00
63190;BME280;49286;44.460;26.114;2022-11-20T02:24:28;100007.31;;;3.87;100.00
63190;BME280;49286;44.460;26.114;2022-11-20T02:26:59;100121.38;;;4.64;100.00
63190;BME280;49286;44.460;26.114;2022-11-20T02:29:27;100151.91;;;4.76;100.00
63190;BME280;49286;44.460;26.114;2022-11-20T02:31:56;100115.84;;;4.48;100.00
63190;BME280;49286;44.460;26.114;2022-11-20T02:34:24;100166.56;;;4.73;100.00
63190;BME280;49286;44.460;26.114;2022-11-20T02:36:51;100014.44;;;3.97;100.00
63190;BME280;49286;44.460;26.114;2022-11-20T02:39:19;100142.97;;;4.62;100.00
63190;BME280;49286;44.460;26.114;2022-11-20T02:41:45;99994.28;;;3.84;100.00
63190;BME280;49286;44.460;26.114;2022-11-20T02:44:11;100022.22;;;3.97;100.00
63190;BME280;49286;44.460;26.114;2022-11-20T02:46:37;99991.78;;;3.89;100.00
63190;BME280;49286;44.460;26.114;2022-11-20T02:49:04;100108.97;;;4.50;100.00
63190;BME280;49286;44.460;26.114;2022-11-20T02:51:30;100114.44;;;4.65;100.00
63190;BME280;49286;44.460;26.114;2022-11-20T02:53:56;99976.22;;;3.90;100.00
63190;BME280;49286;44.460;26.114;2022-11-20T02:56:22;100119.66;;;4.65;100.00
63190;BME280;49286;44.460;26.114;2022-11-20T02:58:47;100028.41;;;4.04;100.00
63190;BME280;49286;44.460;26.114;2022-11-20T03:01:13;100144.81;;;4.68;100.00
63190;BME280;49286;44.460;26.114;2022-11-20T03:03:39;100144.72;;;4.63;100.00
63190;BME280;49286;44.460;26.114;2022-11-20T03:06:05;100109.84;;;4.50;100.00
63190;BME280;49286;44.460;26.114;2022-11-20T03:08:30;99992.53;;;3.83;100.00
63190;BME280;49286;44.460;26.114;2022-11-20T03:10:56;99973.47;;;3.83;100.00
63190;BME280;49286;44.460;26.114;2022-11-20T03:13:21;100037.38;;;4.20;100.00
63190;BME280;49286;44.460;26.114;2022-11-20T03:15:47;99970.06;;;3.85;100.00
63190;BME280;49286;44.460;26.114;2022-11-20T03:18:12;100086.63;;;4.59;100.00
63190;BME280;49286;44.460;26.114;2022-11-20T03:20:39;99962.16;;;3.77;100.00
63190;BME280;49286;44.460;26.114;2022-11-20T03:23:04;100137.19;;;4.77;100.00
63190;BME280;49286;44.460;26.114;2022-11-20T03:25:30;99968.38;;;3.87;100.00
63190;BME280;49286;44.460;26.114;2022-11-20T03:27:55;99971.88;;;3.89;100.00
63190;BME280;49286;44.460;26.114;2022-11-20T03:30:21;100112.50;;;4.53;100.00
63190;BME280;49286;44.460;26.114;2022-11-20T03:32:47;100116.72;;;4.48;100.00
63190;BME280;49286;44.460;26.114;2022-11-20T03:35:12;100130.09;;;4.68;100.00
63190;BME280;49286;44.460;26.114;2022-11-20T03:37:38;100144.91;;;4.71;100.00
63190;BME280;49286;44.460;26.114;2022-11-20T03:40:04;100143.16;;;4.71;100.00
63190;BME280;49286;44.460;26.114;2022-11-20T03:42:29;100149.22;;;4.72;100.00
63190;BME280;49286;44.460;26.114;2022-11-20T03:45:10;100152.56;;;4.64;100.00
63190;BME280;49286;44.460;26.114;2022-11-20T03:47:35;100148.28;;;4.67;100.00
63190;BME280;49286;44.460;26.114;2022-11-20T03:50:01;100002.09;;;3.86;100.00
63190;BME280;49286;44.460;26.114;2022-11-20T03:52:26;100018.97;;;4.08;100.00
63190;BME280;49286;44.460;26.114;2022-11-20T03:54:52;99979.81;;;3.97;100.00
63190;BME280;49286;44.460;26.114;2022-11-20T03:57:17;100092.84;;;4.68;100.00
63190;BME280;49286;44.460;26.114;2022-11-20T03:59:43;99926.72;;;3.81;100.00
63190;BME280;49286;44.460;26.114;2022-11-20T04:02:08;100024.13;;;4.50;100.00
63190;BME280;49286;44.460;26.114;2022-11-20T04:04:34;100084.50;;;4.85;100.00
63190;BME280;49286;44.460;26.114;2022-11-20T04:06:59;100027.00;;;4.67;100.00
63190;BME280;49286;44.460;26.114;2022-11-20T04:09:25;100048.88;;;4.78;100.00
63190;BME280;49286;44.460;26.114;2022-11-20T04:11:50;99899.56;;;4.08;100.00
63190;BME280;49286;44.460;26.114;2022-11-20T04:14:16;100047.34;;;4.91;100.00
63190;BME280;49286;44.460;26.114;2022-11-20T04:16:42;99915.44;;;4.25;100.00
63190;BME280;49286;44.460;26.114;2022-11-20T04:19:13;100044.16;;;5.09;100.00
63190;BME280;49286;44.460;26.114;2022-11-20T04:21:39;99895.41;;;4.17;100.00
63190;BME280;49286;44.460;26.114;2022-11-20T04:24:05;99878.38;;;4.33;100.00
63190;BME280;49286;44.460;26.114;2022-11-20T04:26:31;99876.69;;;4.37;100.00
63190;BME280;49286;44.460;26.114;2022-11-20T04:28:57;99862.56;;;4.21;100.00
63190;BME280;49286;44.460;26.114;2022-11-20T04:31:25;99926.25;;;4.51;100.00
63190;BME280;49286;44.460;26.114;2022-11-20T04:33:51;99895.94;;;4.51;100.00
63190;BME280;49286;44.460;26.114;2022-11-20T04:36:19;99911.72;;;4.63;100.00
63190;BME280;49286;44.460;26.114;2022-11-20T04:38:45;99909.81;;;4.52;100.00
63190;BME280;49286;44.460;26.114;2022-11-20T04:41:15;100052.13;;;5.18;100.00
63190;BME280;49286;44.460;26.114;2022-11-20T04:43:41;99941.22;;;4.64;100.00
63190;BME280;49286;44.460;26.114;2022-11-20T04:46:06;100019.69;;;4.96;100.00
63190;BME280;49286;44.460;26.114;2022-11-20T04:48:32;100061.50;;;5.08;100.00
63190;BME280;49286;44.460;26.114;2022-11-20T04:50:57;99942.72;;;4.51;100.00
63190;BME280;49286;44.460;26.114;2022-11-20T04:53:27;100069.63;;;5.28;100.00
63190;BME280;49286;44.460;26.114;2022-11-20T04:56:02;99943.28;;;4.33;100.00
63190;BME280;49286;44.460;26.114;2022-11-20T04:58:28;100091.53;;;4.90;100.00
63190;BME280;49286;44.460;26.114;2022-11-20T05:01:01;99987.19;;;4.21;100.00
63190;BME280;49286;44.460;26.114;2022-11-20T05:03:27;99968.53;;;3.93;100.00
63190;BME280;49286;44.460;26.114;2022-11-20T05:05:52;100108.28;;;4.60;100.00
63190;BME280;49286;44.460;26.114;2022-11-20T05:08:18;100140.00;;;4.89;100.00
63190;BME280;49286;44.460;26.114;2022-11-20T05:10:43;100119.94;;;4.80;100.00
63190;BME280;49286;44.460;26.114;2022-11-20T05:13:09;100019.91;;;4.11;100.00
63190;BME280;49286;44.460;26.114;2022-11-20T05:15:34;100113.66;;;4.69;100.00
63190;BME280;49286;44.460;26.114;2022-11-20T05:18:00;100023.41;;;4.13;100.00
63190;BME280;49286;44.460;26.114;2022-11-20T05:20:25;100000.25;;;3.80;100.00
63190;BME280;49286;44.460;26.114;2022-11-20T05:22:50;100190.19;;;4.83;100.00
63190;BME280;49286;44.460;26.114;2022-11-20T05:25:16;100191.81;;;4.80;100.00
63190;BME280;49286;44.460;26.114;2022-11-20T05:27:41;100207.81;;;5.00;100.00
63190;BME280;49286;44.460;26.114;2022-11-20T05:30:08;100172.94;;;4.89;100.00
63190;BME280;49286;44.460;26.114;2022-11-20T05:32:34;100057.25;;;4.18;100.00
63190;BME280;49286;44.460;26.114;2022-11-20T05:34:59;100041.75;;;4.22;100.00
63190;BME280;49286;44.460;26.114;2022-11-20T05:37:24;100051.50;;;4.34;100.00
63190;BME280;49286;44.460;26.114;2022-11-20T05:39:50;100187.06;;;5.03;100.00
63190;BME280;49286;44.460;26.114;2022-11-20T05:42:15;100171.47;;;5.03;100.00
63190;BME280;49286;44.460;26.114;2022-11-20T05:45:00;100180.22;;;5.06;100.00
63190;BME280;49286;44.460;26.114;2022-11-20T05:47:27;100052.38;;;4.33;100.00
63190;BME280;49286;44.460;26.114;2022-11-20T05:49:53;100034.59;;;4.11;100.00
63190;BME280;49286;44.460;26.114;2022-11-20T05:52:19;100121.56;;;4.74;100.00
63190;BME280;49286;44.460;26.114;2022-11-20T05:54:45;100220.53;;;5.30;100.00
63190;BME280;49286;44.460;26.114;2022-11-20T05:57:10;100210.56;;;5.06;100.00
63190;BME280;49286;44.460;26.114;2022-11-20T05:59:35;100089.56;;;4.32;100.00
63190;BME280;49286;44.460;26.114;2022-11-20T06:02:01;100228.03;;;5.15;100.00
63190;BME280;49286;44.460;26.114;2022-11-20T06:04:26;100085.25;;;4.33;100.00
63190;BME280;49286;44.460;26.114;2022-11-20T06:06:52;100223.78;;;5.18;100.00
63190;BME280;49286;44.460;26.114;2022-11-20T06:09:17;100221.97;;;5.14;100.00
63190;BME280;49286;44.460;26.114;2022-11-20T06:11:42;100241.03;;;5.15;100.00
63190;BME280;49286;44.460;26.114;2022-11-20T06:14:08;100235.94;;;5.19;100.00
63190;BME280;49286;44.460;26.114;2022-11-20T06:16:33;100209.56;;;4.99;100.00
63190;BME280;49286;44.460;26.114;2022-11-20T06:18:59;100084.25;;;4.26;100.00
63190;BME280;49286;44.460;26.114;2022-11-20T06:21:24;100130.72;;;4.56;100.00
63190;BME280;49286;44.460;26.114;2022-11-20T06:23:52;100255.13;;;5.26;100.00
63190;BME280;49286;44.460;26.114;2022-11-20T06:26:22;100265.66;;;5.34;100.00
63190;BME280;49286;44.460;26.114;2022-11-20T06:28:49;100221.94;;;5.13;100.00
63190;BME280;49286;44.460;26.114;2022-11-20T06:31:17;100277.00;;;5.36;100.00
63190;BME280;49286;44.460;26.114;2022-11-20T06:33:44;100289.22;;;5.40;100.00
63190;BME280;49286;44.460;26.114;2022-11-20T06:36:11;100282.31;;;5.42;100.00
63190;BME280;49286;44.460;26.114;2022-11-20T06:38:37;100215.84;;;5.12;100.00
63190;BME280;49286;44.460;26.114;2022-11-20T06:41:08;100129.22;;;4.66;100.00
63190;BME280;49286;44.460;26.114;2022-11-20T06:43:35;100117.78;;;4.58;100.00
63190;BME280;49286;44.460;26.114;2022-11-20T06:46:01;100286.03;;;5.56;100.00
63190;BME280;49286;44.460;26.114;2022-11-20T06:48:27;100145.72;;;4.70;100.00
63190;BME280;49286;44.460;26.114;2022-11-20T06:50:53;100143.44;;;4.85;100.00
63190;BME280;49286;44.460;26.114;2022-11-20T06:53:18;100111.50;;;4.92;100.00
63190;BME280;49286;44.460;26.114;2022-11-20T06:55:45;100229.28;;;5.85;100.00
63190;BME280;49286;44.460;26.114;2022-11-20T06:58:12;100240.00;;;6.04;100.00
63190;BME280;49286;44.460;26.114;2022-11-20T07:00:37;100233.09;;;6.06;100.00
63190;BME280;49286;44.460;26.114;2022-11-20T07:03:07;100178.84;;;5.80;100.00
63190;BME280;49286;44.460;26.114;2022-11-20T07:05:34;100061.78;;;5.25;100.00
63190;BME280;49286;44.460;26.114;2022-11-20T07:08:00;100203.88;;;6.27;100.00
63190;BME280;49286;44.460;26.114;2022-11-20T07:10:26;100149.38;;;5.83;100.00
63190;BME280;49286;44.460;26.114;2022-11-20T07:12:52;100225.00;;;6.48;100.00
63190;BME280;49286;44.460;26.114;2022-11-20T07:15:20;100095.66;;;5.88;100.00
63190;BME280;49286;44.460;26.114;2022-11-20T07:17:45;100218.47;;;6.80;100.00
63190;BME280;49286;44.460;26.114;2022-11-20T07:20:12;100205.53;;;6.87;100.00
63190;BME280;49286;44.460;26.114;2022-11-20T07:22:37;100154.94;;;6.73;100.00
63190;BME280;49286;44.460;26.114;2022-11-20T07:25:04;100024.88;;;6.17;100.00
63190;BME280;49286;44.460;26.114;2022-11-20T07:27:29;100158.81;;;7.07;100.00
63190;BME280;49286;44.460;26.114;2022-11-20T07:29:56;100059.41;;;6.80;100.00
63190;BME280;49286;44.460;26.114;2022-11-20T07:32:22;100147.06;;;7.60;100.00
63190;BME280;49286;44.460;26.114;2022-11-20T07:34:48;100086.06;;;7.49;100.00
63190;BME280;49286;44.460;26.114;2022-11-20T07:37:13;100143.53;;;7.53;100.00
63190;BME280;49286;44.460;26.114;2022-11-20T07:39:39;100004.78;;;6.93;100.00
63190;BME280;49286;44.460;26.114;2022-11-20T07:42:06;100106.28;;;7.73;100.00
63190;BME280;49286;44.460;26.114;2022-11-20T07:44:31;100139.13;;;7.43;100.00
63190;BME280;49286;44.460;26.114;2022-11-20T07:46:57;100150.16;;;7.16;100.00
63190;BME280;49286;44.460;26.114;2022-11-20T07:49:22;100051.53;;;6.76;100.00
63190;BME280;49286;44.460;26.114;2022-11-20T07:51:52;100162.59;;;7.42;100.00
63190;BME280;49286;44.460;26.114;2022-11-20T07:54:21;100057.06;;;7.07;100.00
63190;BME280;49286;44.460;26.114;2022-11-20T07:56:48;100146.94;;;7.42;100.00
63190;BME280;49286;44.460;26.114;2022-11-20T07:59:13;100179.25;;;7.57;100.00
63190;BME280;49286;44.460;26.114;2022-11-20T08:01:39;100215.81;;;7.54;100.00
63190;BME280;49286;44.460;26.114;2022-11-20T08:04:05;100097.00;;;7.02;100.00
63190;BME280;49286;44.460;26.114;2022-11-20T08:06:31;100080.41;;;6.93;100.00
63190;BME280;49286;44.460;26.114;2022-11-20T08:08:56;100209.94;;;7.86;100.00
63190;BME280;49286;44.460;26.114;2022-11-20T08:11:22;100179.88;;;7.30;100.00
63190;BME280;49286;44.460;26.114;2022-11-20T08:14:06;100084.66;;;6.85;100.00
63190;BME280;49286;44.460;26.114;2022-11-20T08:16:41;100207.28;;;7.75;100.00
63190;BME280;49286;44.460;26.114;2022-11-20T08:19:07;100215.34;;;8.06;100.00
63190;BME280;49286;44.460;26.114;2022-11-20T08:21:33;100065.69;;;7.00;100.00
63190;BME280;49286;44.460;26.114;2022-11-20T08:23:59;100212.72;;;8.08;100.00
63190;BME280;49286;44.460;26.114;2022-11-20T08:26:25;100216.06;;;7.91;100.00
63190;BME280;49286;44.460;26.114;2022-11-20T08:28:57;100218.00;;;8.14;100.00
63190;BME280;49286;44.460;26.114;2022-11-20T08:31:27;100107.84;;;7.49;100.00
63190;BME280;49286;44.460;26.114;2022-11-20T08:33:53;100229.28;;;8.07;100.00
63190;BME280;49286;44.460;26.114;2022-11-20T08:36:20;100228.03;;;7.60;100.00
63190;BME280;49286;44.460;26.114;2022-11-20T08:38:53;100229.88;;;7.73;100.00
63190;BME280;49286;44.460;26.114;2022-11-20T08:41:19;100214.16;;;7.67;100.00
63190;BME280;49286;44.460;26.114;2022-11-20T08:43:57;100216.81;;;7.75;100.00
63190;BME280;49286;44.460;26.114;2022-11-20T08:46:24;100223.91;;;7.91;100.00
63190;BME280;49286;44.460;26.114;2022-11-20T08:48:50;100098.50;;;6.78;100.00
63190;BME280;49286;44.460;26.114;2022-11-20T08:51:17;100118.13;;;7.29;100.00
63190;BME280;49286;44.460;26.114;2022-11-20T08:53:42;100106.84;;;7.33;100.00
63190;BME280;49286;44.460;26.114;2022-11-20T08:56:08;100213.53;;;8.00;100.00
63190;BME280;49286;44.460;26.114;2022-11-20T08:58:35;100266.84;;;8.19;100.00
63190;BME280;49286;44.460;26.114;2022-11-20T09:01:02;100261.47;;;8.04;100.00
63190;BME280;49286;44.460;26.114;2022-11-20T09:03:28;100259.34;;;7.60;100.00
63190;BME280;49286;44.460;26.114;2022-11-20T09:06:02;100225.59;;;7.83;100.00
63190;BME280;49286;44.460;26.114;2022-11-20T09:08:28;100224.66;;;7.75;100.00
63190;BME280;49286;44.460;26.114;2022-11-20T09:10:55;100217.84;;;7.92;100.00
63190;BME280;49286;44.460;26.114;2022-11-20T09:13:22;100250.16;;;8.05;100.00
63190;BME280;49286;44.460;26.114;2022-11-20T09:15:56;100175.00;;;7.66;100.00
63190;BME280;49286;44.460;26.114;2022-11-20T09:18:23;100255.53;;;8.23;100.00
63190;BME280;49286;44.460;26.114;2022-11-20T09:20:49;100279.03;;;8.23;100.00
63190;BME280;49286;44.460;26.114;2022-11-20T09:23:15;100244.91;;;7.99;100.00
63190;BME280;49286;44.460;26.114;2022-11-20T09:25:41;100271.16;;;8.16;100.00
63190;BME280;49286;44.460;26.114;2022-11-20T09:28:06;100177.63;;;7.69;100.00
63190;BME280;49286;44.460;26.114;2022-11-20T09:30:32;100151.41;;;7.58;100.00
63190;BME280;49286;44.460;26.114;2022-11-20T09:32:58;100235.13;;;7.76;100.00
63190;BME280;49286;44.460;26.114;2022-11-20T09:35:23;100118.63;;;6.93;100.00
63190;BME280;49286;44.460;26.114;2022-11-20T09:37:49;100226.53;;;7.91;100.00
63190;BME280;49286;44.460;26.114;2022-11-20T09:40:25;100203.53;;;7.46;100.00
63190;BME280;49286;44.460;26.114;2022-11-20T09:45:50;100235.63;;;7.37;100.00
63190;BME280;49286;44.460;26.114;2022-11-20T09:54:14;100251.09;;;8.10;100.00
63190;BME280;49286;44.460;26.114;2022-11-20T09:56:43;100177.31;;;7.33;100.00
63190;BME280;49286;44.460;26.114;2022-11-20T09:59:32;100258.50;;;7.63;100.00
63190;BME280;49286;44.460;26.114;2022-11-20T10:01:59;100193.88;;;7.37;100.00
63190;BME280;49286;44.460;26.114;2022-11-20T10:04:29;100153.69;;;7.18;100.00
63190;BME280;49286;44.460;26.114;2022-11-20T10:09:40;100129.22;;;7.08;100.00
63190;BME280;49286;44.460;26.114;2022-11-20T10:12:29;100216.94;;;7.87;100.00
63190;BME280;49286;44.460;26.114;2022-11-20T10:21:23;100260.34;;;7.73;100.00
63190;BME280;49286;44.460;26.114;2022-11-20T10:29:32;100239.63;;;7.94;100.00
63190;BME280;49286;44.460;26.114;2022-11-20T10:32:09;100092.56;;;6.93;100.00
63190;BME280;49286;44.460;26.114;2022-11-20T10:35:01;100259.78;;;8.09;100.00
63190;BME280;49286;44.460;26.114;2022-11-20T10:37:30;100247.66;;;8.17;100.00
63190;BME280;49286;44.460;26.114;2022-11-20T10:42:36;100209.66;;;7.51;100.00
63190;BME280;49286;44.460;26.114;2022-11-20T10:45:19;100249.28;;;8.04;100.00
63190;BME280;49286;44.460;26.114;2022-11-20T10:47:47;100240.69;;;8.18;100.00
63190;BME280;49286;44.460;26.114;2022-11-20T10:50:18;100233.72;;;8.21;100.00
63190;BME280;49286;44.460;26.114;2022-11-20T10:53:03;100249.41;;;8.23;100.00
63190;BME280;49286;44.460;26.114;2022-11-20T10:58:36;100199.59;;;7.97;100.00
63190;BME280;49286;44.460;26.114;2022-11-20T11:01:14;100245.88;;;8.16;100.00
63190;BME280;49286;44.460;26.114;2022-11-20T11:03:41;100248.41;;;8.04;100.00
63190;BME280;49286;44.460;26.114;2022-11-20T11:08:39;100108.63;;;7.39;100.00
63190;BME280;49286;44.460;26.114;2022-11-20T11:11:21;100207.44;;;7.98;100.00
63190;BME280;49286;44.460;26.114;2022-11-20T11:13:48;100100.69;;;7.27;100.00
63190;BME280;49286;44.460;26.114;2022-11-20T11:16:23;100102.56;;;7.40;100.00
63190;BME280;49286;44.460;26.114;2022-11-20T11:18:49;100174.19;;;7.76;100.00
63190;BME280;49286;44.460;26.114;2022-11-20T11:21:21;100139.97;;;7.44;100.00
63190;BME280;49286;44.460;26.114;2022-11-20T11:23:48;100179.25;;;7.54;100.00
63190;BME280;49286;44.460;26.114;2022-11-20T11:26:23;100196.66;;;7.58;100.00
63190;BME280;49286;44.460;26.114;2022-11-20T11:28:55;100201.31;;;7.92;100.00
63190;BME280;49286;44.460;26.114;2022-11-20T11:31:29;100173.34;;;7.81;100.00
63190;BME280;49286;44.460;26.114;2022-11-20T11:34:15;100212.78;;;8.17;100.00
63190;BME280;49286;44.460;26.114;2022-11-20T11:36:42;100204.84;;;8.01;100.00
63190;BME280;49286;44.460;26.114;2022-11-20T11:39:15;100224.09;;;8.16;100.00
63190;BME280;49286;44.460;26.114;2022-11-20T11:41:42;100030.03;;;7.02;100.00
63190;BME280;49286;44.460;26.114;2022-11-20T11:44:21;100189.81;;;7.71;100.00
63190;BME280;49286;44.460;26.114;2022-11-20T11:47:26;100176.09;;;7.98;100.00
63190;BME280;49286;44.460;26.114;2022-11-20T11:50:17;100194.41;;;8.01;100.00
63190;BME280;49286;44.460;26.114;2022-11-20T11:53:09;100225.03;;;8.29;100.00
63190;BME280;49286;44.460;26.114;2022-11-20T11:56:07;100097.47;;;7.57;100.00
63190;BME280;49286;44.460;26.114;2022-11-20T11:58:46;100231.28;;;8.43;100.00
63190;BME280;49286;44.460;26.114;2022-11-20T12:03:42;100209.38;;;8.29;100.00
63190;BME280;49286;44.460;26.114;2022-11-20T12:06:16;100239.19;;;8.54;100.00
63190;BME280;49286;44.460;26.114;2022-11-20T12:08:59;100248.84;;;8.70;100.00
63190;BME280;49286;44.460;26.114;2022-11-20T12:14:00;100238.25;;;8.42;100.00
63190;BME280;49286;44.460;26.114;2022-11-20T12:16:35;100037.31;;;7.40;100.00
63190;BME280;49286;44.460;26.114;2022-11-20T12:19:07;100173.69;;;8.37;100.00
63190;BME280;49286;44.460;26.114;2022-11-20T12:24:35;100256.75;;;8.82;100.00
63190;BME280;49286;44.460;26.114;2022-11-20T12:37:48;100234.91;;;8.70;100.00
63190;BME280;49286;44.460;26.114;2022-11-20T12:40:44;100254.94;;;8.71;100.00
63190;BME280;49286;44.460;26.114;2022-11-20T12:43:26;100085.50;;;7.97;100.00
63190;BME280;49286;44.460;26.114;2022-11-20T12:46:48;100112.56;;;8.07;100.00
63190;BME280;49286;44.460;26.114;2022-11-20T13:08:02;100054.03;;;7.73;100.00
63190;BME280;49286;44.460;26.114;2022-11-20T13:10:41;100062.84;;;7.95;100.00
63190;BME280;49286;44.460;26.114;2022-11-20T13:16:19;100186.97;;;8.72;100.00
63190;BME280;49286;44.460;26.114;2022-11-20T13:18:48;100185.22;;;8.73;100.00
63190;BME280;49286;44.460;26.114;2022-11-20T13:21:15;100034.78;;;7.57;100.00
63190;BME280;49286;44.460;26.114;2022-11-20T13:23:41;100143.09;;;8.19;100.00
63190;BME280;49286;44.460;26.114;2022-11-20T13:26:16;100150.22;;;8.41;100.00
63190;BME280;49286;44.460;26.114;2022-11-20T13:28:41;100171.06;;;8.35;100.00
63190;BME280;49286;44.460;26.114;2022-11-20T13:31:30;100060.16;;;7.79;100.00
63190;BME280;49286;44.460;26.114;2022-11-20T13:33:57;100031.28;;;7.55;100.00
63190;BME280;49286;44.460;26.114;2022-11-20T13:36:26;100041.69;;;7.46;100.00
63190;BME280;49286;44.460;26.114;2022-11-20T13:38:54;100179.69;;;8.17;100.00
63190;BME280;49286;44.460;26.114;2022-11-20T13:41:31;100175.50;;;8.42;100.00
63190;BME280;49286;44.460;26.114;2022-11-20T13:44:25;100157.81;;;8.00;100.00
63190;BME280;49286;44.460;26.114;2022-11-20T13:46:52;100165.56;;;7.91;100.00
63190;BME280;49286;44.460;26.114;2022-11-20T13:49:34;100160.34;;;7.85;100.00
63190;BME280;49286;44.460;26.114;2022-11-20T13:54:58;100174.22;;;7.77;100.00
63190;BME280;49286;44.460;26.114;2022-11-20T14:00:17;100189.31;;;8.26;100.00
63190;BME280;49286;44.460;26.114;2022-11-20T14:05:35;100198.88;;;8.24;100.00
63190;BME280;49286;44.460;26.114;2022-11-20T14:08:04;100110.63;;;7.75;100.00
63190;BME280;49286;44.460;26.114;2022-11-20T14:10:30;100199.78;;;8.28;100.00
63190;BME280;49286;44.460;26.114;2022-11-20T14:12:56;100182.34;;;8.22;100.00
63190;BME280;49286;44.460;26.114;2022-11-20T14:15:29;100055.56;;;7.42;100.00
63190;BME280;49286;44.460;26.114;2022-11-20T14:17:56;100212.06;;;8.39;100.00
63190;BME280;49286;44.460;26.114;2022-11-20T14:20:25;100219.94;;;8.42;100.00
63190;BME280;49286;44.460;26.114;2022-11-20T14:22:53;100113.22;;;7.72;100.00